Time;durP1;ratioP1;P1;durP2;ratioP2;P2;SDS_P1;SDS_P2;PMS_P1;PMS_P2;Temp;Humidity;BMP_temperature;BMP_pressure;BME280_temperature;BME280_humidity;BME280_pressure;Samples;Min_cycle;Max_cycle;Signal;HPM_P1;HPM_P2
2020/12/30 00:02:58;;;;;;;37.28;13.60;;;;;;;2.35;74.61;97593.48;2178603;82;21577;-64
2020/12/30 00:06:00;;;;;;;35.43;13.50;;;;;;;2.42;74.42;97592.75;2178827;82;21293;-64
2020/12/30 00:09:02;;;;;;;42.13;16.30;;;;;;;2.51;74.48;97600.06;2175764;82;21560;-66
2020/12/30 00:12:05;;;;;;;35.90;13.40;;;;;;;2.54;73.89;97606.85;2161103;82;21726;-66
2020/12/30 00:15:07;;;;;;;50.78;19.10;;;;;;;2.50;73.99;97605.31;2161448;82;21266;-66
2020/12/30 00:18:10;;;;;;;52.05;18.82;;;;;;;2.43;73.98;97592.67;2161192;82;21614;-66
2020/12/30 00:21:12;;;;;;;48.15;18.82;;;;;;;2.37;74.18;97587.80;2140212;82;21294;-67
2020/12/30 00:24:14;;;;;;;43.83;17.90;;;;;;;2.28;74.33;97593.39;2161882;82;21725;-67
2020/12/30 00:27:16;;;;;;;51.20;18.75;;;;;;;2.22;74.17;97598.87;2161621;82;21155;-69
2020/12/30 00:30:18;;;;;;;47.73;20.82;;;;;;;2.14;74.32;97600.53;2161435;82;21709;-66
2020/12/30 00:33:20;;;;;;;42.78;16.45;;;;;;;2.13;74.57;97599.31;2161159;82;21102;-65
2020/12/30 00:36:22;;;;;;;39.95;15.68;;;;;;;2.24;74.79;97605.66;2161498;82;21151;-65
2020/12/30 00:39:25;;;;;;;35.65;12.37;;;;;;;2.27;74.71;97603.38;2161176;82;21594;-64
2020/12/30 00:42:27;;;;;;;35.78;12.35;;;;;;;2.33;74.77;97601.80;2161195;82;21115;-64
2020/12/30 00:45:29;;;;;;;35.15;12.13;;;;;;;2.37;74.72;97599.45;2161594;82;21285;-64
2020/12/30 00:48:31;;;;;;;38.92;13.98;;;;;;;2.42;74.92;97603.94;2161409;82;21714;-65
2020/12/30 00:51:34;;;;;;;38.53;14.03;;;;;;;2.46;75.23;97602.48;2161447;82;21265;-65
2020/12/30 00:54:36;;;;;;;34.95;11.85;;;;;;;2.51;75.08;97601.36;2161502;82;21318;-65
2020/12/30 00:57:38;;;;;;;37.98;12.58;;;;;;;2.55;75.07;97601.59;2161378;82;21698;-64
2020/12/30 01:00:40;;;;;;;38.45;13.03;;;;;;;2.61;75.48;97601.77;2161163;82;21135;-65
2020/12/30 01:03:42;;;;;;;31.48;11.55;;;;;;;2.68;75.85;97607.49;2161455;82;21282;-64
2020/12/30 01:06:44;;;;;;;32.38;10.40;;;;;;;2.88;76.27;97602.63;2161230;82;21265;-64
2020/12/30 01:09:46;;;;;;;33.67;9.48;;;;;;;3.05;76.51;97605.69;2140157;81;21281;-64
2020/12/30 01:12:48;;;;;;;32.88;9.98;;;;;;;3.20;76.87;97597.12;2161359;82;21725;-65
2020/12/30 01:15:50;;;;;;;28.27;7.60;;;;;;;3.32;77.42;97600.01;2161110;82;21120;-68
2020/12/30 01:18:53;;;;;;;22.95;5.47;;;;;;;3.45;78.36;97599.78;2161417;82;21292;-67
2020/12/30 01:21:55;;;;;;;19.98;5.03;;;;;;;3.62;79.45;97598.88;2161168;82;21138;-64
2020/12/30 01:24:57;;;;;;;23.67;5.70;;;;;;;3.77;79.08;97602.44;2160957;82;21611;-65
2020/12/30 01:27:59;;;;;;;18.40;4.10;;;;;;;3.89;80.71;97595.75;2161365;82;21135;-65
2020/12/30 01:31:02;;;;;;;19.52;5.17;;;;;;;3.96;79.80;97595.80;2161619;82;21262;-66
2020/12/30 01:34:05;;;;;;;19.95;5.33;;;;;;;4.06;79.75;97589.19;2160969;82;21591;-66
2020/12/30 01:37:07;;;;;;;20.90;5.60;;;;;;;4.11;80.30;97577.29;2161205;82;21742;-65
2020/12/30 01:40:09;;;;;;;26.97;6.62;;;;;;;4.19;79.60;97588.06;2161140;82;21139;-66
2020/12/30 01:43:11;;;;;;;30.27;9.15;;;;;;;4.24;79.34;97597.75;2161595;82;21266;-65
2020/12/30 01:46:13;;;;;;;23.47;6.67;;;;;;;4.26;79.73;97589.88;2161538;82;21718;-65
2020/12/30 01:49:15;;;;;;;21.93;5.33;;;;;;;4.37;79.72;97595.75;2161376;82;21325;-66
2020/12/30 01:52:17;;;;;;;26.57;8.25;;;;;;;4.38;80.21;97624.23;2161366;82;21318;-66
2020/12/30 01:55:20;;;;;;;25.90;6.70;;;;;;;4.34;80.82;97620.16;2161324;82;21253;-65
2020/12/30 01:58:22;;;;;;;20.32;3.60;;;;;;;4.37;80.66;97622.58;2161575;82;21281;-65
2020/12/30 02:01:24;;;;;;;29.42;9.85;;;;;;;4.40;81.46;97630.19;2161311;82;21302;-65
2020/12/30 02:04:26;;;;;;;22.02;5.50;;;;;;;4.45;81.27;97620.84;2140147;82;21277;-65
2020/12/30 02:07:28;;;;;;;16.37;4.20;;;;;;;4.46;80.53;97625.95;2161044;82;21139;-66
2020/12/30 02:10:30;;;;;;;21.37;5.12;;;;;;;4.48;80.88;97618.93;2169625;82;21145;-65
2020/12/30 02:13:32;;;;;;;21.00;4.55;;;;;;;4.59;80.83;97622.69;2178615;82;21725;-65
2020/12/30 02:16:34;;;;;;;17.32;4.47;;;;;;;4.64;81.25;97616.75;2178630;82;21300;-65
2020/12/30 02:19:36;;;;;;;14.18;3.55;;;;;;;4.65;81.34;97613.24;2178530;82;21284;-67
2020/12/30 02:22:38;;;;;;;12.65;2.92;;;;;;;4.66;81.18;97608.43;2178516;82;21280;-65
2020/12/30 02:25:40;;;;;;;12.13;2.85;;;;;;;4.65;81.44;97610.17;2178725;82;21292;-65
2020/12/30 02:28:42;;;;;;;6.90;1.95;;;;;;;4.68;81.84;97607.87;2178488;82;21293;-66
2020/12/30 02:31:45;;;;;;;6.60;2.05;;;;;;;4.71;81.90;97603.80;2178508;82;21610;-65
2020/12/30 02:34:47;;;;;;;8.18;2.12;;;;;;;4.73;81.90;97591.57;2178704;82;21697;-66
2020/12/30 02:37:49;;;;;;;13.58;2.87;;;;;;;4.71;82.84;97603.80;2178511;82;21308;-65
2020/12/30 02:40:52;;;;;;;11.95;3.10;;;;;;;4.68;82.02;97615.66;2178954;82;21138;-65
2020/12/30 02:43:54;;;;;;;20.05;5.95;;;;;;;4.79;81.98;97626.28;2178630;82;21265;-65
2020/12/30 02:46:56;;;;;;;13.18;3.22;;;;;;;4.84;81.78;97632.52;2178909;82;21174;-65
2020/12/30 02:49:58;;;;;;;12.25;3.45;;;;;;;4.83;81.81;97621.77;2178608;82;21685;-65
2020/12/30 02:53:00;;;;;;;15.95;3.10;;;;;;;4.80;82.31;97611.08;2178544;82;21737;-67
2020/12/30 02:56:02;;;;;;;12.05;2.98;;;;;;;4.83;81.92;97620.00;2150916;82;21261;-66
2020/12/30 02:59:05;;;;;;;12.55;2.80;;;;;;;4.97;82.17;97627.45;2178710;82;21705;-66
2020/12/30 03:02:07;;;;;;;20.40;3.90;;;;;;;5.01;81.54;97626.36;2178477;82;21288;-66
2020/12/30 03:05:09;;;;;;;15.93;3.42;;;;;;;5.01;81.41;97638.91;2178878;82;21190;-67
2020/12/30 03:08:11;;;;;;;16.62;3.67;;;;;;;5.03;81.45;97627.95;2178713;82;21270;-66
2020/12/30 03:11:13;;;;;;;15.05;3.25;;;;;;;5.14;81.61;97619.55;2178738;81;21280;-67
2020/12/30 03:14:15;;;;;;;14.90;3.67;;;;;;;5.25;81.09;97629.78;2178615;82;21718;-67
2020/12/30 03:17:17;;;;;;;23.87;6.53;;;;;;;5.14;80.95;97623.45;2178907;82;21154;-67
2020/12/30 03:20:19;;;;;;;26.75;8.38;;;;;;;5.14;80.95;97616.95;2178573;82;21725;-68
2020/12/30 03:23:22;;;;;;;27.87;8.28;;;;;;;5.14;81.27;97607.85;2178759;81;21265;-66
2020/12/30 03:26:24;;;;;;;23.40;7.05;;;;;;;5.17;81.26;97608.11;2178893;82;21166;-67
2020/12/30 03:29:27;;;;;;;19.87;5.65;;;;;;;5.22;81.27;97609.16;2178413;82;21733;-66
2020/12/30 03:32:29;;;;;;;20.77;6.20;;;;;;;5.24;80.89;97600.33;2178490;82;21288;-69
2020/12/30 03:35:31;;;;;;;17.52;4.90;;;;;;;5.15;81.01;97599.11;2178437;82;21288;-67
2020/12/30 03:38:33;;;;;;;18.37;4.90;;;;;;;5.12;80.97;97606.27;2178595;82;21685;-66
2020/12/30 03:41:36;;;;;;;20.68;6.62;;;;;;;5.09;81.06;97596.88;2178683;82;21745;-66
2020/12/30 03:44:38;;;;;;;19.62;5.75;;;;;;;5.08;81.13;97591.77;2178656;82;21336;-66
2020/12/30 03:47:40;;;;;;;14.75;3.90;;;;;;;5.02;81.20;97590.36;2178738;82;21317;-66
2020/12/30 03:50:42;;;;;;;16.95;4.10;;;;;;;5.03;81.16;97592.86;2178453;82;21740;-65
2020/12/30 03:53:44;;;;;;;16.70;4.90;;;;;;;4.99;81.16;97588.77;2179118;82;21276;-65
2020/12/30 03:56:46;;;;;;;17.02;4.40;;;;;;;5.03;81.32;97598.06;2178633;82;21249;-66
2020/12/30 03:59:49;;;;;;;25.80;6.35;;;;;;;5.09;81.29;97602.07;2179113;82;21146;-69
2020/12/30 04:02:51;;;;;;;20.50;5.08;;;;;;;5.18;81.33;97604.59;2178863;82;21154;-68
2020/12/30 04:05:53;;;;;;;19.32;5.20;;;;;;;5.25;81.17;97611.58;2178656;82;21273;-66
2020/12/30 04:08:55;;;;;;;22.25;6.30;;;;;;;5.34;80.94;97618.38;2178654;82;21308;-65
2020/12/30 04:11:57;;;;;;;20.65;5.20;;;;;;;5.36;80.92;97616.98;2164788;81;21733;-65
2020/12/30 04:14:59;;;;;;;20.32;6.15;;;;;;;5.28;80.93;97623.92;2161290;82;21273;-65
2020/12/30 04:18:01;;;;;;;18.07;5.15;;;;;;;5.15;81.37;97614.70;2161679;82;21298;-65
2020/12/30 04:21:04;;;;;;;18.27;4.50;;;;;;;5.09;81.61;97619.44;2161436;82;21722;-65
2020/12/30 04:24:06;;;;;;;16.07;4.17;;;;;;;5.03;81.75;97619.33;2140237;82;21282;-65
2020/12/30 04:27:08;;;;;;;19.35;4.90;;;;;;;4.94;82.41;97615.50;2161616;82;21289;-65
2020/12/30 04:30:10;;;;;;;18.00;4.12;;;;;;;4.88;82.13;97608.51;2161239;82;21587;-65
2020/12/30 04:33:12;;;;;;;17.48;4.10;;;;;;;4.84;82.32;97612.59;2161205;82;21273;-66
2020/12/30 04:36:14;;;;;;;17.10;4.20;;;;;;;4.82;82.61;97610.52;2161634;82;21295;-65
2020/12/30 04:39:17;;;;;;;16.67;4.33;;;;;;;4.77;82.43;97603.47;2161197;82;21120;-65
2020/12/30 04:42:19;;;;;;;18.67;4.20;;;;;;;4.76;82.50;97606.98;2161432;82;21293;-65
2020/12/30 04:45:21;;;;;;;18.70;4.80;;;;;;;4.73;82.59;97590.27;2161361;82;21717;-66
2020/12/30 04:48:23;;;;;;;18.48;4.85;;;;;;;4.68;82.79;97590.55;2161181;82;21131;-65
2020/12/30 04:51:25;;;;;;;18.27;4.50;;;;;;;4.67;82.94;97590.16;2161656;82;21289;-65
2020/12/30 04:54:27;;;;;;;18.00;5.47;;;;;;;4.73;82.65;97593.34;2161251;82;21722;-65
2020/12/30 04:57:31;;;;;;;19.10;5.00;;;;;;;4.79;82.58;97596.41;2161280;82;21701;-65
2020/12/30 05:00:33;;;;;;;18.55;4.92;;;;;;;4.82;82.47;97599.30;2161521;82;21285;-65
2020/12/30 05:03:35;;;;;;;24.82;7.90;;;;;;;4.81;82.26;97595.02;2161371;82;21151;-65
2020/12/30 05:06:37;;;;;;;20.92;6.42;;;;;;;4.81;82.28;97598.48;2161081;82;21147;-65
2020/12/30 05:09:40;;;;;;;20.72;5.80;;;;;;;4.83;82.37;97597.91;2161184;82;21135;-65
2020/12/30 05:12:42;;;;;;;20.68;5.15;;;;;;;4.84;82.44;97594.40;2177515;81;21316;-70
2020/12/30 05:15:44;;;;;;;19.02;5.33;;;;;;;4.86;82.40;97584.74;2178557;82;21253;-67
2020/12/30 05:18:47;;;;;;;20.27;5.53;;;;;;;4.92;82.30;97589.22;2178795;82;21713;-66
2020/12/30 05:21:49;;;;;;;21.82;5.25;;;;;;;4.99;82.39;97589.24;2178532;82;21301;-66
2020/12/30 05:24:51;;;;;;;20.43;5.50;;;;;;;4.95;82.05;97591.16;2178441;82;21729;-66
2020/12/30 05:27:53;;;;;;;21.30;5.30;;;;;;;4.94;82.13;97598.61;2178730;82;21721;-65
2020/12/30 05:30:55;;;;;;;20.65;5.00;;;;;;;4.96;82.20;97595.45;2178877;82;21158;-66
2020/12/30 05:33:57;;;;;;;19.00;4.95;;;;;;;4.92;82.16;97603.04;2178658;82;21289;-65
2020/12/30 05:36:59;;;;;;;19.75;5.62;;;;;;;4.92;82.09;97610.84;2178868;82;21154;-65
2020/12/30 05:40:02;;;;;;;19.77;5.65;;;;;;;4.95;82.25;97617.63;2178805;82;21284;-65
2020/12/30 05:43:04;;;;;;;19.67;5.30;;;;;;;5.03;82.04;97625.35;2179015;82;21170;-65
2020/12/30 05:46:06;;;;;;;19.50;5.22;;;;;;;5.03;82.08;97630.55;2178488;82;21760;-66
2020/12/30 05:49:08;;;;;;;19.37;5.35;;;;;;;5.00;81.86;97635.11;2178753;82;21285;-65
2020/12/30 05:52:10;;;;;;;18.70;5.28;;;;;;;5.02;82.08;97640.56;2178688;82;21717;-65
2020/12/30 05:55:12;;;;;;;22.05;6.20;;;;;;;5.05;81.85;97647.36;2178780;82;21269;-65
2020/12/30 05:58:14;;;;;;;21.93;6.83;;;;;;;5.07;81.65;97639.02;2178764;82;21693;-65
2020/12/30 06:01:17;;;;;;;20.68;6.22;;;;;;;5.06;81.68;97641.24;2178484;82;21312;-65
2020/12/30 06:04:19;;;;;;;27.45;7.53;;;;;;;5.02;81.82;97642.34;2178977;82;21130;-65
2020/12/30 06:07:21;;;;;;;22.80;6.55;;;;;;;5.00;81.74;97642.42;2178604;82;21713;-65
2020/12/30 06:10:23;;;;;;;23.60;6.50;;;;;;;4.98;81.73;97640.36;2178422;81;21261;-67
2020/12/30 06:13:25;;;;;;;25.17;8.23;;;;;;;4.95;81.84;97644.91;2179026;82;21150;-65
2020/12/30 06:16:27;;;;;;;24.07;7.50;;;;;;;4.75;82.42;97621.36;2178595;82;21709;-65
2020/12/30 06:19:29;;;;;;;23.98;6.58;;;;;;;4.75;82.42;97621.36;2178984;82;21099;-66
2020/12/30 06:22:32;;;;;;;24.35;6.65;;;;;;;4.66;82.18;97620.12;2178513;82;21306;-66
2020/12/30 06:25:34;;;;;;;22.70;6.45;;;;;;;4.64;82.38;97611.12;2150634;82;22348;-68
2020/12/30 06:28:36;;;;;;;20.80;5.10;;;;;;;4.69;82.31;97614.75;2178472;82;21293;-65
2020/12/30 06:31:38;;;;;;;19.45;5.37;;;;;;;4.70;82.15;97617.73;2178954;82;21146;-66
2020/12/30 06:34:40;;;;;;;22.13;5.90;;;;;;;4.76;82.43;97621.27;2178702;82;21285;-65
2020/12/30 06:37:43;;;;;;;28.90;9.80;;;;;;;5.00;82.33;97626.01;2178608;82;21296;-66
2020/12/30 06:40:45;;;;;;;27.22;8.48;;;;;;;5.01;81.72;97624.62;2178356;82;21315;-66
2020/12/30 06:43:47;;;;;;;26.25;8.28;;;;;;;4.94;81.60;97615.50;2150644;82;21260;-66
2020/12/30 06:46:50;;;;;;;29.55;9.68;;;;;;;4.79;81.75;97613.77;2178447;82;21323;-65
2020/12/30 06:49:52;;;;;;;33.80;10.82;;;;;;;4.66;81.84;97615.75;2178504;82;21708;-65
2020/12/30 06:52:54;;;;;;;36.08;12.70;;;;;;;4.68;82.08;97616.52;2178518;82;21296;-65
2020/12/30 06:55:56;;;;;;;43.40;14.07;;;;;;;4.73;81.92;97618.02;2178798;82;21143;-65
2020/12/30 06:58:58;;;;;;;32.73;12.15;;;;;;;4.68;81.92;97632.55;2178472;82;21312;-65
2020/12/30 07:02:00;;;;;;;28.57;12.33;;;;;;;4.67;82.09;97633.02;2178479;82;21261;-66
2020/12/30 07:05:04;;;;;;;26.55;7.85;;;;;;;4.67;82.17;97622.63;2178359;81;21559;-65
2020/12/30 07:08:06;;;;;;;21.87;6.47;;;;;;;4.67;82.28;97622.63;2178449;82;21253;-65
2020/12/30 07:11:08;;;;;;;22.25;6.45;;;;;;;4.76;82.43;97623.05;2174475;81;21722;-65
2020/12/30 07:14:10;;;;;;;22.87;6.50;;;;;;;4.87;82.12;97629.77;2161045;82;21166;-65
2020/12/30 07:17:13;;;;;;;24.70;7.65;;;;;;;4.86;81.88;97625.02;2161177;82;21582;-65
2020/12/30 07:20:15;;;;;;;;;;;;;;;4.91;81.84;97622.62;2163539;82;21154;-65
2020/12/30 07:23:17;;;;;;;28.02;7.92;;;;;;;4.94;81.85;97621.14;2161111;82;20146;-66
2020/12/30 07:26:19;;;;;;;26.10;8.03;;;;;;;4.89;81.61;97624.48;2161278;82;21285;-66
2020/12/30 07:29:21;;;;;;;24.35;7.17;;;;;;;4.91;81.76;97620.84;2161271;82;21281;-65
2020/12/30 07:32:24;;;;;;;24.23;6.53;;;;;;;4.91;81.66;97618.25;2161374;82;21698;-65
2020/12/30 07:35:26;;;;;;;24.98;7.47;;;;;;;4.91;81.78;97618.72;2161206;82;21277;-65
2020/12/30 07:38:28;;;;;;;26.25;9.13;;;;;;;4.90;81.61;97613.14;2161713;82;21289;-65
2020/12/30 07:41:30;;;;;;;24.00;7.12;;;;;;;4.89;81.82;97605.82;2161372;82;21282;-65
2020/12/30 07:44:32;;;;;;;19.25;5.75;;;;;;;4.88;81.78;97598.94;2140173;82;21336;-65
2020/12/30 07:47:34;;;;;;;19.75;5.80;;;;;;;4.79;81.63;97607.27;2161370;82;21656;-65
2020/12/30 07:50:36;;;;;;;20.77;5.87;;;;;;;4.68;81.71;97608.73;2161178;82;21297;-65
2020/12/30 07:53:38;;;;;;;22.30;6.40;;;;;;;4.64;81.98;97608.52;2161473;82;21690;-66
2020/12/30 07:56:40;;;;;;;22.67;6.22;;;;;;;4.69;82.14;97622.54;2161327;82;21261;-67
2020/12/30 07:59:43;;;;;;;24.15;7.03;;;;;;;4.78;82.07;97621.18;2161682;82;21281;-66
2020/12/30 08:02:45;;;;;;;24.47;7.50;;;;;;;4.83;81.83;97619.17;2161219;82;21567;-65
2020/12/30 08:05:47;;;;;;;24.32;8.68;;;;;;;4.84;81.87;97620.38;2161249;82;21714;-69
2020/12/30 08:08:49;;;;;;;24.32;8.45;;;;;;;4.92;82.00;97616.51;2140246;82;21741;-65
2020/12/30 08:11:51;;;;;;;23.12;7.72;;;;;;;5.01;81.81;97611.62;2167835;82;21273;-65
2020/12/30 08:14:54;;;;;;;20.00;6.60;;;;;;;5.05;81.60;97616.64;2178590;82;21724;-68
2020/12/30 08:17:57;;;;;;;21.48;6.97;;;;;;;5.07;81.59;97614.33;2178593;82;21276;-68
2020/12/30 08:20:59;;;;;;;24.90;7.55;;;;;;;5.09;81.66;97618.97;2178717;82;21171;-67
2020/12/30 08:24:01;;;;;;;22.00;6.42;;;;;;;5.18;81.73;97613.22;2178836;82;21698;-66
2020/12/30 08:27:03;;;;;;;21.05;6.58;;;;;;;5.14;81.32;97607.00;2178628;82;21269;-67
2020/12/30 08:30:05;;;;;;;21.30;6.70;;;;;;;5.07;81.45;97615.63;2178847;82;21555;-66
2020/12/30 08:33:08;;;;;;;20.88;6.40;;;;;;;5.08;81.59;97617.76;2178715;82;21154;-66
2020/12/30 08:36:10;;;;;;;22.87;7.40;;;;;;;4.99;81.63;97614.76;2179077;82;21284;-66
2020/12/30 08:39:12;;;;;;;23.50;7.60;;;;;;;5.02;81.73;97617.65;2178816;82;21258;-68
2020/12/30 08:42:14;;;;;;;23.67;9.00;;;;;;;5.05;81.67;97617.94;2178685;82;21122;-67
2020/12/30 08:45:16;;;;;;;24.80;9.35;;;;;;;5.01;81.64;97615.52;2178718;82;21590;-65
2020/12/30 08:48:19;;;;;;;23.70;8.03;;;;;;;5.00;81.73;97605.22;2178721;82;21297;-65
2020/12/30 08:51:21;;;;;;;23.32;8.98;;;;;;;5.01;81.53;97609.02;2179048;82;21185;-67
2020/12/30 08:54:23;;;;;;;22.20;7.83;;;;;;;5.02;81.87;97617.17;2178810;82;21721;-66
2020/12/30 08:57:25;;;;;;;22.82;7.50;;;;;;;5.06;81.75;97615.69;2178612;82;21288;-66
2020/12/30 09:00:27;;;;;;;25.50;7.47;;;;;;;5.07;81.87;97617.38;2178559;82;21292;-65
2020/12/30 09:03:29;;;;;;;24.45;8.50;;;;;;;5.08;81.60;97622.48;2178827;82;21285;-67
2020/12/30 09:06:32;;;;;;;26.87;9.30;;;;;;;5.13;81.74;97623.51;2178384;82;21326;-65
2020/12/30 09:09:35;;;;;;;22.70;8.85;;;;;;;5.17;81.65;97614.61;2178782;82;22073;-65
2020/12/30 09:12:37;;;;;;;22.98;7.83;;;;;;;5.21;81.51;97614.81;2178482;82;21752;-65
2020/12/30 09:15:39;;;;;;;23.47;7.60;;;;;;;5.17;81.32;97612.87;2178480;82;21281;-65
2020/12/30 09:18:41;;;;;;;25.10;8.90;;;;;;;5.28;81.45;97616.13;2178585;82;21292;-65
2020/12/30 09:21:44;;;;;;;26.40;9.13;;;;;;;5.43;81.47;97624.80;2178563;82;21606;-65
2020/12/30 09:24:47;;;;;;;28.15;10.25;;;;;;;5.52;81.28;97624.24;2178706;82;21146;-65
2020/12/30 09:27:49;;;;;;;36.68;16.97;;;;;;;5.54;80.43;97628.05;2178859;82;21151;-65
2020/12/30 09:30:52;;;;;;;32.70;14.20;;;;;;;5.46;80.83;97627.66;2178563;82;21273;-65
2020/12/30 09:33:54;;;;;;;31.48;12.78;;;;;;;5.57;81.08;97625.26;2178397;82;21312;-65
2020/12/30 09:36:56;;;;;;;33.90;14.25;;;;;;;5.65;81.03;97620.92;2178656;82;21756;-65
2020/12/30 09:39:58;;;;;;;26.73;10.00;;;;;;;5.74;81.10;97624.25;2179009;82;21320;-65
2020/12/30 09:43:00;;;;;;;25.80;9.08;;;;;;;5.82;80.58;97628.98;2178664;82;21281;-67
2020/12/30 09:46:04;;;;;;;27.42;9.73;;;;;;;5.88;80.65;97631.23;2150711;82;21578;-65
2020/12/30 09:49:06;;;;;;;25.12;8.95;;;;;;;5.90;80.35;97617.20;2178503;82;21281;-65
2020/12/30 09:52:08;;;;;;;26.52;9.55;;;;;;;5.87;80.28;97608.25;2178771;82;21577;-65
2020/12/30 09:55:10;;;;;;;27.40;10.85;;;;;;;5.92;80.58;97613.20;2178588;82;21277;-66
2020/12/30 09:58:13;;;;;;;27.45;11.08;;;;;;;5.97;80.15;97620.28;2150681;82;21269;-66
2020/12/30 10:01:15;;;;;;;34.55;12.85;;;;;;;5.98;80.21;97626.34;2178516;82;21774;-66
2020/12/30 10:04:17;;;;;;;29.87;11.63;;;;;;;6.02;79.90;97631.70;2178513;82;21281;-65
2020/12/30 10:07:19;;;;;;;30.27;12.20;;;;;;;6.01;80.08;97630.05;2178845;82;21178;-65
2020/12/30 10:10:21;;;;;;;29.00;11.57;;;;;;;6.01;79.87;97629.58;2178605;82;21277;-65
2020/12/30 10:13:24;;;;;;;32.88;12.45;;;;;;;5.97;79.82;97633.73;2157480;81;21272;-66
2020/12/30 10:16:26;;;;;;;34.43;13.80;;;;;;;5.93;80.13;97630.95;2188097;81;21737;-65
2020/12/30 10:19:28;;;;;;;29.02;11.73;;;;;;;5.92;79.93;97630.13;2188335;81;21296;-66
2020/12/30 10:22:31;;;;;;;29.67;11.70;;;;;;;5.90;80.18;97630.66;2188364;81;21707;-66
2020/12/30 10:25:33;;;;;;;31.10;12.37;;;;;;;5.97;80.32;97633.73;2188438;81;21316;-65
2020/12/30 10:28:36;;;;;;;26.65;10.70;;;;;;;6.05;80.28;97631.54;2187999;81;21705;-65
2020/12/30 10:31:38;;;;;;;31.12;11.93;;;;;;;6.14;80.20;97624.45;2188137;81;21095;-65
2020/12/30 10:34:41;;;;;;;31.73;11.45;;;;;;;6.21;80.16;97619.23;2188220;81;21693;-66
2020/12/30 10:37:43;;;;;;;31.27;13.00;;;;;;;6.27;80.14;97616.70;2188099;81;21186;-66
2020/12/30 10:40:45;;;;;;;29.42;12.15;;;;;;;6.27;79.87;97614.10;2188639;81;21300;-65
2020/12/30 10:43:48;;;;;;;;;;;;;;;6.33;80.13;97603.29;2191081;81;21280;-65
2020/12/30 10:46:50;;;;;;;31.97;12.70;;;;;;;6.46;80.13;97610.34;2188345;81;20511;-66
2020/12/30 10:49:52;;;;;;;32.08;13.78;;;;;;;6.54;79.82;97605.01;2188622;81;21280;-66
2020/12/30 10:52:54;;;;;;;29.52;12.03;;;;;;;6.59;79.81;97602.10;2160270;81;21305;-65
2020/12/30 10:55:56;;;;;;;31.23;12.95;;;;;;;6.73;79.50;97598.13;2188578;81;21274;-65
2020/12/30 10:58:58;;;;;;;28.80;11.63;;;;;;;6.75;79.14;97583.25;2188393;81;21709;-65
2020/12/30 11:02:02;;;;;;;28.42;12.43;;;;;;;6.76;79.10;97585.37;2188220;81;21150;-65
2020/12/30 11:05:05;;;;;;;31.02;13.08;;;;;;;6.70;79.17;97589.22;2188097;81;21138;-66
2020/12/30 11:08:07;;;;;;;29.42;11.65;;;;;;;6.68;79.09;97587.19;2188355;81;21260;-66
2020/12/30 11:11:09;;;;;;;35.63;16.75;;;;;;;6.63;79.24;97580.61;2188343;81;21257;-66
2020/12/30 11:14:12;;;;;;;94.42;47.67;;;;;;;6.61;79.56;97579.41;2164255;81;21643;-66
2020/12/30 11:17:20;;;;;;;93.10;41.63;;;;;;;6.57;79.41;97576.63;2161138;82;21714;-67
2020/12/30 11:20:22;;;;;;;34.88;15.75;;;;;;;6.54;79.65;97570.31;2161735;82;21265;-65
2020/12/30 11:23:24;;;;;;;32.38;12.82;;;;;;;6.50;79.71;97566.23;2161385;82;21730;-66
2020/12/30 11:26:27;;;;;;;34.35;15.88;;;;;;;6.50;79.65;97564.45;2161557;82;21159;-67
2020/12/30 11:29:31;;;;;;;37.60;17.15;;;;;;;6.47;79.73;97565.95;2161360;82;21706;-67
2020/12/30 11:32:33;;;;;;;33.20;14.33;;;;;;;6.49;79.86;97561.95;2161094;82;21147;-66
2020/12/30 11:35:35;;;;;;;31.20;13.68;;;;;;;6.54;79.86;97552.08;2161469;82;21326;-65
2020/12/30 11:38:38;;;;;;;30.82;13.22;;;;;;;6.57;79.80;97550.09;2161155;82;21261;-66
2020/12/30 11:41:40;;;;;;;36.83;16.30;;;;;;;6.57;79.61;97553.17;2116506;82;21289;-65
2020/12/30 11:44:42;;;;;;;36.85;15.93;;;;;;;6.58;79.75;97550.47;2161352;82;21729;-65
2020/12/30 11:47:45;;;;;;;46.60;18.00;;;;;;;6.61;79.97;97545.98;2161471;82;21281;-65
2020/12/30 11:50:47;;;;;;;45.15;19.67;;;;;;;6.66;79.76;97548.66;2161689;82;21277;-65
2020/12/30 11:53:49;;;;;;;33.73;14.15;;;;;;;6.69;79.59;97556.75;2161460;82;21273;-66
2020/12/30 11:56:51;;;;;;;33.90;14.85;;;;;;;6.68;79.44;97552.47;2140683;82;21265;-65
2020/12/30 11:59:54;;;;;;;37.23;16.50;;;;;;;6.63;79.41;97554.55;2161168;82;21298;-65
2020/12/30 12:02:56;;;;;;;41.40;18.55;;;;;;;6.54;79.88;97550.78;2161450;82;21293;-65
2020/12/30 12:05:58;;;;;;;36.20;15.98;;;;;;;6.54;79.88;97550.78;2161169;82;21302;-65
2020/12/30 12:09:00;;;;;;;38.20;18.20;;;;;;;6.58;79.52;97556.98;2161228;82;21297;-65
2020/12/30 12:12:03;;;;;;;36.73;16.57;;;;;;;6.55;79.65;97559.80;2162857;81;21706;-66
2020/12/30 12:15:05;;;;;;;39.10;16.80;;;;;;;6.52;79.49;97562.60;2178621;82;21154;-67
2020/12/30 12:18:07;;;;;;;40.00;19.55;;;;;;;6.47;79.73;97565.95;2178732;82;21747;-66
2020/12/30 12:21:09;;;;;;;41.80;18.32;;;;;;;6.43;79.88;97567.56;2178625;82;21253;-66
2020/12/30 12:24:11;;;;;;;36.77;17.80;;;;;;;6.41;79.89;97574.17;2178629;82;21300;-65
2020/12/30 12:27:13;;;;;;;34.80;17.00;;;;;;;6.38;79.99;97569.17;2178720;82;21296;-65
2020/12/30 12:30:16;;;;;;;142.37;62.08;;;;;;;6.31;80.04;97571.80;2178840;82;21324;-65
2020/12/30 12:33:18;;;;;;;157.10;69.55;;;;;;;6.29;80.31;97572.34;2178821;82;21713;-65
2020/12/30 12:36:20;;;;;;;49.05;23.55;;;;;;;6.28;80.19;97565.45;2179027;82;21158;-66
2020/12/30 12:39:22;;;;;;;;;;;;;;;6.26;80.38;97575.14;2153376;82;21717;-65
2020/12/30 12:42:24;;;;;;;52.65;24.67;;;;;;;6.26;80.32;97575.97;2178702;82;20226;-65
2020/12/30 12:45:27;;;;;;;43.02;21.60;;;;;;;6.24;80.40;97576.55;2150814;82;21194;-65
2020/12/30 12:48:29;;;;;;;39.27;17.57;;;;;;;6.22;80.44;97579.25;2178578;82;21272;-66
2020/12/30 12:51:31;;;;;;;37.60;17.45;;;;;;;6.19;80.69;97583.35;2179061;82;21277;-65
2020/12/30 12:54:33;;;;;;;47.55;21.95;;;;;;;6.25;80.78;97588.64;2178578;82;21269;-65
2020/12/30 12:57:35;;;;;;;45.63;20.17;;;;;;;6.23;80.50;97588.73;2178815;82;21205;-65
2020/12/30 13:00:37;;;;;;;36.45;16.07;;;;;;;6.17;80.20;97592.19;2178827;82;21277;-66
2020/12/30 13:03:40;;;;;;;38.10;14.53;;;;;;;6.00;80.21;97601.03;2178574;82;21626;-65
2020/12/30 13:06:42;;;;;;;37.28;16.00;;;;;;;5.85;80.66;97591.91;2178566;82;21764;-65
2020/12/30 13:09:44;;;;;;;35.20;14.65;;;;;;;5.71;80.92;97599.25;2150745;82;21277;-66
2020/12/30 13:12:46;;;;;;;38.75;16.10;;;;;;;5.61;81.39;97602.52;2178748;81;21289;-65
2020/12/30 13:15:48;;;;;;;32.78;12.63;;;;;;;5.53;81.35;97609.02;2179029;82;21257;-65
2020/12/30 13:18:50;;;;;;;31.07;11.78;;;;;;;5.47;81.61;97609.36;2178667;82;21293;-67
2020/12/30 13:21:53;;;;;;;31.15;13.40;;;;;;;5.41;81.66;97611.52;2178576;82;21253;-66
2020/12/30 13:24:55;;;;;;;34.83;15.18;;;;;;;5.32;82.05;97608.52;2150664;82;21780;-66
2020/12/30 13:27:57;;;;;;;36.73;14.38;;;;;;;5.21;82.27;97616.11;2178800;82;21716;-65
2020/12/30 13:30:59;;;;;;;38.45;15.18;;;;;;;5.11;82.80;97611.91;2178619;82;21265;-65
2020/12/30 13:34:01;;;;;;;28.47;10.03;;;;;;;5.00;82.88;97614.31;2178634;82;21261;-65
2020/12/30 13:37:03;;;;;;;30.40;11.15;;;;;;;4.92;82.87;97619.11;2178552;82;21269;-66
2020/12/30 13:40:06;;;;;;;28.92;9.75;;;;;;;4.81;82.89;97620.56;2178733;82;21740;-65
2020/12/30 13:43:08;;;;;;;30.17;10.80;;;;;;;4.76;82.26;97630.84;2179040;82;21162;-65
2020/12/30 13:46:10;;;;;;;32.00;12.25;;;;;;;4.69;82.58;97623.36;2150738;82;21728;-66
2020/12/30 13:49:12;;;;;;;39.75;15.32;;;;;;;4.72;82.40;97637.13;2179056;82;21143;-65
2020/12/30 13:52:15;;;;;;;36.03;14.95;;;;;;;4.73;82.59;97626.64;2178531;82;21379;-65
2020/12/30 13:55:17;;;;;;;35.03;13.95;;;;;;;4.74;82.59;97632.22;2178617;82;21103;-65
2020/12/30 13:58:19;;;;;;;34.33;14.18;;;;;;;4.76;82.35;97629.53;2178646;82;21289;-65
2020/12/30 14:01:21;;;;;;;35.80;15.72;;;;;;;4.77;82.30;97628.59;2178990;82;21150;-66
2020/12/30 14:04:24;;;;;;;;;;;;;;;4.76;82.44;97630.36;2181082;82;21272;-65
2020/12/30 14:07:27;;;;;;;45.67;18.62;;;;;;;4.79;82.43;97631.95;2178854;82;20170;-65
2020/12/30 14:10:29;;;;;;;41.85;16.27;;;;;;;4.81;82.58;97629.66;2178497;82;21285;-67
2020/12/30 14:13:31;;;;;;;47.65;19.25;;;;;;;4.82;82.57;97636.98;2171588;81;21159;-65
2020/12/30 14:16:34;;;;;;;69.40;30.32;;;;;;;4.83;82.72;97628.27;2161082;82;21127;-65